Weather at Bay Bridge Airport

Public forecast

Using degrees Fahrenheit for public forecast. Weather courtesy of forecast.io.

Closest aviation weather report (METAR) to Bay Bridge Airport

Closest report is Easton Airport / Newnam Field, 16.0 nm (29.6 km) SE. Retrieved 2020/11/29 03:35 UTC (24 minutes ago):

KESN 290335Z AUTO 00000KT 10SM CLR 07/01 A3018 RMK AO2 T00700014

Closest aviation forecast (TAF) to Bay Bridge Airport

Closest forecast is Baltimore/Washington International Thurgood Marshall Airport, 19.8 nm (36.7 km) NW. Retrieved 2020-11-29 00:28 UTC (4 hours ago):

TAF KBWI 282326Z 2900/3006 32005KT P6SM FEW250 FM290300 VRB03KT P6SM FEW250 FM291600 20007KT P6SM SCT250 FM292200 15005KT P6SM BKN250